Vers la page d'accueil de NAV CANADA Ouverture d'une nouvelle session Chercher sur le site AWWS Clause de non-reponsabilité To the equivalent English page Trucs et astuces FAQ Quoi de neuf sur le site Vers la section Prévisions et observations / NOTAM Vers le site web pour <<Déposer un plan de vol>> Publications et liens importants Mise à jour du profil d'usager Numéros de téléphone des FIC Mes données météo personnelles Données météo de route Données météo régionales Données météo locales Vers la section Prévisions et observations / NOTAM
Requête générée le 2019/02/18 à 14:18:11 UTC. L'information météorologique disponible à ce moment est affichée.

METAR/TAF

Si vous notez des différences entre le METAR/TAF codé et le METAR/TAF en langage clair, veuillez utiliser la version codée. Les bulletins LWIS ne sont pas décodés en langage clair.

QUEBEC/JEAN LESAGE INTL/QC    (voir Cam météo)

METAR CYQB 181400Z 04004KT 10SM FEW005 BKN140 M19/M21 A3002 RMK SF1AC5 HAZY OVR ITY SLP175=
METAR
LIEU
CYQB - QUEBEC/JEAN LESAGE INTL/QC
DATE - HEURE
18 FEVRIER 2019 - 1400 UTC
VENT
40 VRAIS @ 4  NOEUDS
VISIBILITE
10 MILLES TERR.
PORTEE VISUELLE DE PISTE
METEO
NEBULOSITE
QUELQUES NUAGES (1/8 - 2/8) 500  PI
NUAGES FRAGMENTES (5/8 - 7/8) 14000  PI
TEMP / PT DE ROSEE
-19 C / -21 C
ALTIMETRE
30.02 PO HG
TEMPS RECENT
CISAILLEMENT

METAR CYQB 181300Z 06004KT 050V140 10SM R06/2400FT/N FEW001 SCT150 M24/M26 A300 RMK SF2AC2 VIS LWR W SLP182=
METAR
LIEU
CYQB - QUEBEC/JEAN LESAGE INTL/QC
DATE - HEURE
18 FEVRIER 2019 - 1300 UTC
VENT
60 VRAIS @ 4  NOEUDS
VARIATION
50 <-> 140  DEG
VISIBILITE
10 MILLES TERR.
PORTEE VISUELLE DE PISTE
PISTE 6
PORTEE 2400  PI
TENDANCE STABLE
METEO
NEBULOSITE
QUELQUES NUAGES (1/8 - 2/8) 100  PI
NUAGES EPARS (3/8 - 4/8) 15000  PI
TEMP / PT DE ROSEE
-24 C / -26 C
ALTIMETRE
30.04 PO HG
TEMPS RECENT
CISAILLEMENT

SPECI CYQB 181245Z 00000KT 3/4SM R06/1200FT/N BR SCT150 M22/M25 A3004 RMK FG2AC VIS LWR W VIS TWR 10 SLP181=
SPECI
LIEU
CYQB - QUEBEC/JEAN LESAGE INTL/QC
DATE - HEURE
18 FEVRIER 2019 - 1245 UTC
VENT
CALME
VISIBILITE
3/4 MILLE TERR.
PORTEE VISUELLE DE PISTE
PISTE 6
PORTEE 1200  PI
TENDANCE STABLE
METEO
BRUME
NEBULOSITE
NUAGES EPARS (3/8 - 4/8) 15000  PI
TEMP / PT DE ROSEE
-22 C / -25 C
ALTIMETRE
30.04 PO HG
TEMPS RECENT
CISAILLEMENT

SPECI CYQB 181230Z 31003KT 1/2SM R06/0900FT/N FZFG BKN150 M22/M25 A3004 RMK FG4 2 VIS LWR W TWR VIS 10 SLP181=
SPECI
LIEU
CYQB - QUEBEC/JEAN LESAGE INTL/QC
DATE - HEURE
18 FEVRIER 2019 - 1230 UTC
VENT
310 VRAIS @ 3  NOEUDS
VISIBILITE
1/2 MILLE TERR.
PORTEE VISUELLE DE PISTE
PISTE 6
PORTEE 900  PI
TENDANCE STABLE
METEO
BROUILLARD GLACE
NEBULOSITE
NUAGES FRAGMENTES (5/8 - 7/8) 15000  PI
TEMP / PT DE ROSEE
-22 C / -25 C
ALTIMETRE
30.04 PO HG
TEMPS RECENT
CISAILLEMENT

METAR CYQB 181200Z 29003KT 3/8SM R06/1800FT/N FZFG BKN001 BKN150 M24/M26 A3003 K FG4SF1AC1 FG OVR RWY TWR VIS 15 SLP181=
METAR
LIEU
CYQB - QUEBEC/JEAN LESAGE INTL/QC
DATE - HEURE
18 FEVRIER 2019 - 1200 UTC
VENT
290 VRAIS @ 3  NOEUDS
VISIBILITE
3/8 MILLE TERR.
PORTEE VISUELLE DE PISTE
PISTE 6
PORTEE 1800  PI
TENDANCE STABLE
METEO
BROUILLARD GLACE
NEBULOSITE
NUAGES FRAGMENTES (5/8 - 7/8) 100  PI
NUAGES FRAGMENTES (5/8 - 7/8) 15000  PI
TEMP / PT DE ROSEE
-24 C / -26 C
ALTIMETRE
30.03 PO HG
TEMPS RECENT
CISAILLEMENT

TAF AMD CYQB 181144Z 1812/1912 VRB03KT P6SM SCT001 BKN150 TEMPO 1812/1814 1/2SM FG BKN001 FM181400 04006KT P6SM BKN180 FM181800 10008KT P6SM SCT160 FM182200 29008KT P6SM FEW160 BECMG 1903/1905 25008KT RMK NXT FCST BY 181800Z=
TAF MODIFIE
LIEU

CYQB - QUEBEC/JEAN LESAGE INTL/QC
VALIDITE [UTC]
18 FEB - 1144 à
19 FEB - 1200
 
PERIODES
[UTC]
VENT
[DEGRES VRAIS]
VISIBILITE
[MILLES TERR.]
METEO
NEBULOSITE
[PIEDS AGL]
 
18 FEB - 1200 à
18 FEB - 1400
VARIABLE @ 3 NOEUDS
6+
---
100 EPARS
15000 FRAGMENTES
CHANGEMENTS TEMPORAIRES
18 FEB - 1200 à
18 FEB - 1400
 
1/2
BROUILLARD
100 FRAGMENTES
 
18 FEB - 1400 à
18 FEB - 1800
40 @ 6 NOEUDS
6+
---
18000 FRAGMENTES
 
18 FEB - 1800 à
18 FEB - 2200
100 @ 8 NOEUDS
6+
---
16000 EPARS
 
18 FEB - 2200 à
19 FEB - 1200
290 @ 8 NOEUDS
6+
---
16000 QUELQUES
CHANGEMENTS GRADUELS
19 FEB - 0300 à
19 FEB - 0500
250 @ 8 NOEUDS
 
 
 
REMARQUES
LA PREVISION SUIVANTE SERA EMISE POUR 1800 UTC LE 18


Votre heure Heure UTC
Données météorologiques fournies par Environnement Canada et NAV CANADA